createdAt,value
2019-02-27T00:00:24.841Z,1026.35
2019-02-27T00:01:24.857Z,1026.29
2019-02-27T00:02:24.871Z,1026.3
2019-02-27T00:03:28.624Z,1026.3
2019-02-27T00:04:24.901Z,1026.29
2019-02-27T00:05:24.914Z,1026.25
2019-02-27T00:06:24.929Z,1026.28
2019-02-27T00:08:26.917Z,1026.28
2019-02-27T00:09:24.973Z,1026.28
2019-02-27T00:10:24.989Z,1026.29
2019-02-27T00:11:25.003Z,1026.3
2019-02-27T00:12:25.018Z,1026.32
2019-02-27T00:13:25.469Z,1026.29
2019-02-27T00:14:25.047Z,1026.3
2019-02-27T00:15:25.070Z,1026.28
2019-02-27T00:16:25.078Z,1026.27
2019-02-27T00:17:25.092Z,1026.25
2019-02-27T00:18:25.107Z,1026.24
2019-02-27T00:19:25.123Z,1026.26
2019-02-27T00:20:25.136Z,1026.23
2019-02-27T00:21:25.151Z,1026.25
2019-02-27T00:22:25.165Z,1026.26
2019-02-27T00:24:27.025Z,1026.26
2019-02-27T00:25:25.210Z,1026.26
2019-02-27T00:26:25.224Z,1026.24
2019-02-27T00:27:25.239Z,1026.3
2019-02-27T00:28:25.254Z,1026.24
2019-02-27T00:29:28.784Z,1026.24
2019-02-27T00:30:25.283Z,1026.23
2019-02-27T00:31:25.302Z,1026.2
2019-02-27T00:32:25.362Z,1026.23
2019-02-27T00:33:27.041Z,1026.16
2019-02-27T00:34:25.340Z,1026.14
2019-02-27T00:35:25.355Z,1026.15
2019-02-27T00:36:25.371Z,1026.14
2019-02-27T00:37:25.386Z,1026.17
2019-02-27T00:38:25.812Z,1026.15
2019-02-27T00:40:25.429Z,1026.14
2019-02-27T00:41:25.444Z,1026.16
2019-02-27T00:42:33.201Z,1026.15
2019-02-27T00:43:25.942Z,1026.15
2019-02-27T00:44:25.490Z,1026.12
2019-02-27T00:45:25.503Z,1026.12
2019-02-27T00:46:25.515Z,1026.08
2019-02-27T00:47:25.532Z,1026.1
2019-02-27T00:48:26.151Z,1026.07
2019-02-27T00:49:25.559Z,1026.11
2019-02-27T00:50:25.574Z,1026.1
2019-02-27T00:51:25.589Z,1026.12
2019-02-27T00:52:25.603Z,1026.1
2019-02-27T00:53:25.618Z,1026.08
2019-02-27T00:55:25.647Z,1026.06
2019-02-27T00:56:25.661Z,1026.01
2019-02-27T00:57:25.698Z,1026.06
2019-02-27T00:58:27.006Z,1026.03
2019-02-27T00:59:25.705Z,1026
2019-02-27T01:00:25.718Z,1026.04
2019-02-27T01:01:25.733Z,1025.98
2019-02-27T01:02:25.750Z,1025.99
2019-02-27T01:03:26.696Z,1026
2019-02-27T01:04:25.776Z,1026.02
2019-02-27T01:05:25.791Z,1026
2019-02-27T01:06:25.806Z,1025.98
2019-02-27T01:07:25.819Z,1025.99
2019-02-27T01:08:27.499Z,1025.96
2019-02-27T01:09:25.848Z,1025.91
2019-02-27T01:10:25.912Z,1025.89
2019-02-27T01:11:25.876Z,1025.89
2019-02-27T01:12:25.936Z,1025.91
2019-02-27T01:13:25.905Z,1025.89
2019-02-27T01:14:25.919Z,1025.93
2019-02-27T01:15:25.934Z,1025.87
2019-02-27T01:16:25.948Z,1025.91
2019-02-27T01:17:25.963Z,1025.88
2019-02-27T01:18:30.344Z,1025.89
2019-02-27T01:19:25.995Z,1025.91
2019-02-27T01:20:26.006Z,1025.87
2019-02-27T01:21:26.021Z,1025.86
2019-02-27T01:22:26.033Z,1025.89
2019-02-27T01:23:26.048Z,1025.85
2019-02-27T01:24:26.065Z,1025.83
2019-02-27T01:25:26.076Z,1025.82
2019-02-27T01:27:26.106Z,1025.83
2019-02-27T01:28:26.121Z,1025.81
2019-02-27T01:29:26.132Z,1025.8
2019-02-27T01:30:26.147Z,1025.8
2019-02-27T01:31:26.161Z,1025.82
2019-02-27T01:32:26.175Z,1025.81
2019-02-27T01:33:26.189Z,1025.78
2019-02-27T01:34:26.203Z,1025.78
2019-02-27T01:35:26.218Z,1025.79
2019-02-27T01:36:26.230Z,1025.79
2019-02-27T01:37:31.274Z,1025.79
2019-02-27T01:38:26.260Z,1025.75
2019-02-27T01:39:26.273Z,1025.74
2019-02-27T01:40:26.289Z,1025.72
2019-02-27T01:41:26.302Z,1025.77
2019-02-27T01:43:26.331Z,1025.78
2019-02-27T01:44:26.343Z,1025.8
2019-02-27T01:45:26.358Z,1025.78
2019-02-27T01:46:27.723Z,1025.69
2019-02-27T01:47:26.385Z,1025.7
2019-02-27T01:48:26.400Z,1025.7
2019-02-27T01:49:26.514Z,1025.67
2019-02-27T01:50:26.427Z,1025.65
2019-02-27T01:51:28.174Z,1025.63
2019-02-27T01:52:26.455Z,1025.64
2019-02-27T01:53:26.471Z,1025.6
2019-02-27T01:54:26.484Z,1025.54
2019-02-27T01:55:26.498Z,1025.53
2019-02-27T01:56:28.826Z,1025.51
2019-02-27T01:57:26.526Z,1025.46
2019-02-27T01:59:26.556Z,1025.46
2019-02-27T02:00:26.572Z,1025.47
2019-02-27T02:01:29.735Z,1025.39
2019-02-27T02:02:26.595Z,1025.38
2019-02-27T02:03:26.609Z,1025.39
2019-02-27T02:04:26.624Z,1025.39
2019-02-27T02:05:27.410Z,1025.34
2019-02-27T02:06:26.651Z,1025.34
2019-02-27T02:07:26.666Z,1025.36
2019-02-27T02:08:26.680Z,1025.33
2019-02-27T02:09:26.693Z,1025.31
2019-02-27T02:10:28.241Z,1025.28
2019-02-27T02:11:26.723Z,1025.33
2019-02-27T02:12:26.736Z,1025.29
2019-02-27T02:13:26.749Z,1025.25
2019-02-27T02:15:27.260Z,1025.23
2019-02-27T02:16:26.792Z,1025.24
2019-02-27T02:17:26.807Z,1025.18
2019-02-27T02:18:26.820Z,1025.19
2019-02-27T02:19:26.834Z,1025.17
2019-02-27T02:20:27.190Z,1025.16
2019-02-27T02:21:26.862Z,1025.19
2019-02-27T02:22:26.876Z,1025.14
2019-02-27T02:23:26.890Z,1025.11
2019-02-27T02:24:26.903Z,1025.12
2019-02-27T02:25:27.963Z,1025.14
2019-02-27T02:26:26.931Z,1025.08
2019-02-27T02:27:26.948Z,1025.05
2019-02-27T02:28:26.959Z,1025.03
2019-02-27T02:30:29.705Z,1024.97
2019-02-27T02:31:27.002Z,1024.99
2019-02-27T02:32:27.016Z,1024.98
2019-02-27T02:33:30.151Z,1025
2019-02-27T02:34:27.044Z,1025
2019-02-27T02:35:27.056Z,1025
2019-02-27T02:36:27.071Z,1024.98
2019-02-27T02:37:27.084Z,1024.92
2019-02-27T02:38:27.099Z,1024.92
2019-02-27T02:39:27.112Z,1024.94
2019-02-27T02:40:30.766Z,1024.88
2019-02-27T02:41:27.140Z,1024.92
2019-02-27T02:42:27.154Z,1024.91
2019-02-27T02:43:27.171Z,1024.89
2019-02-27T02:44:27.181Z,1024.85
2019-02-27T02:45:32.699Z,1024.86
2019-02-27T02:46:27.209Z,1024.83
2019-02-27T02:47:27.222Z,1024.83
2019-02-27T02:48:27.793Z,1024.83
2019-02-27T02:49:27.256Z,1024.82
2019-02-27T02:50:27.263Z,1024.84
2019-02-27T02:51:28.966Z,1024.87
2019-02-27T02:52:27.300Z,1024.86
2019-02-27T02:53:27.305Z,1024.84
2019-02-27T02:54:27.318Z,1024.82
2019-02-27T02:55:27.334Z,1024.81
2019-02-27T02:56:27.345Z,1024.84
2019-02-27T02:57:27.377Z,1024.8
2019-02-27T02:58:27.376Z,1024.81
2019-02-27T02:59:27.387Z,1024.8
2019-02-27T03:00:27.399Z,1024.78
2019-02-27T03:02:29.634Z,1024.77
2019-02-27T03:03:27.443Z,1024.81
2019-02-27T03:04:27.457Z,1024.75
2019-02-27T03:05:27.469Z,1024.78
2019-02-27T03:06:31.054Z,1024.81
2019-02-27T03:07:27.496Z,1024.81
2019-02-27T03:08:27.508Z,1024.84
2019-02-27T03:09:30.596Z,1024.83
2019-02-27T03:10:27.538Z,1024.82
2019-02-27T03:11:27.550Z,1024.83
2019-02-27T03:12:30.918Z,1024.82
2019-02-27T03:13:27.577Z,1024.83
2019-02-27T03:14:27.591Z,1024.79
2019-02-27T03:15:28.758Z,1024.84
2019-02-27T03:16:27.617Z,1024.79
2019-02-27T03:18:29.469Z,1024.84
2019-02-27T03:19:27.658Z,1024.82
2019-02-27T03:20:27.687Z,1024.83
2019-02-27T03:21:28.842Z,1024.83
2019-02-27T03:22:27.700Z,1024.85
2019-02-27T03:23:27.713Z,1024.84
2019-02-27T03:24:28.896Z,1024.88
2019-02-27T03:25:27.740Z,1024.87
2019-02-27T03:26:27.752Z,1024.85
2019-02-27T03:27:30.494Z,1024.85
2019-02-27T03:28:27.783Z,1024.81
2019-02-27T03:29:27.796Z,1024.76
2019-02-27T03:30:33.560Z,1024.8
2019-02-27T03:31:27.855Z,1024.78
2019-02-27T03:32:27.836Z,1024.77
2019-02-27T03:34:27.874Z,1024.76
2019-02-27T03:35:29.270Z,1024.77
2019-02-27T03:36:27.889Z,1024.76
2019-02-27T03:37:27.905Z,1024.75
2019-02-27T03:38:27.915Z,1024.71
2019-02-27T03:39:27.930Z,1024.74
2019-02-27T03:40:27.950Z,1024.73
2019-02-27T03:41:27.956Z,1024.69
2019-02-27T03:42:30.778Z,1024.7
2019-02-27T03:43:27.982Z,1024.7
2019-02-27T03:44:27.998Z,1024.71
2019-02-27T03:45:30.961Z,1024.74
2019-02-27T03:46:28.022Z,1024.71
2019-02-27T03:47:28.036Z,1024.71
2019-02-27T03:48:28.450Z,1024.69
2019-02-27T03:50:28.076Z,1024.7
2019-02-27T03:51:28.093Z,1024.7
2019-02-27T03:52:28.102Z,1024.76
2019-02-27T03:53:28.116Z,1024.74
2019-02-27T03:54:28.129Z,1024.73
2019-02-27T03:55:31.475Z,1024.73
2019-02-27T03:56:28.160Z,1024.72
2019-02-27T03:57:28.171Z,1024.71
2019-02-27T03:58:30.430Z,1024.73
2019-02-27T03:59:28.194Z,1024.69
2019-02-27T04:00:28.211Z,1024.68
2019-02-27T04:01:30.456Z,1024.69
2019-02-27T04:02:28.235Z,1024.71
2019-02-27T04:03:28.249Z,1024.67
2019-02-27T04:05:28.275Z,1024.64
2019-02-27T04:06:28.291Z,1024.66
2019-02-27T04:07:31.448Z,1024.69
2019-02-27T04:08:28.315Z,1024.63
2019-02-27T04:09:28.328Z,1024.62
2019-02-27T04:10:31.226Z,1024.6
2019-02-27T04:11:28.355Z,1024.61
2019-02-27T04:12:28.370Z,1024.58
2019-02-27T04:13:28.483Z,1024.57
2019-02-27T04:14:28.394Z,1024.62
2019-02-27T04:15:28.416Z,1024.6
2019-02-27T04:16:29.251Z,1024.58
2019-02-27T04:17:28.437Z,1024.61
2019-02-27T04:18:28.574Z,1024.59
2019-02-27T04:19:28.472Z,1024.57
2019-02-27T04:20:28.474Z,1024.55
2019-02-27T04:21:28.484Z,1024.55
2019-02-27T04:22:28.498Z,1024.54
2019-02-27T04:23:28.511Z,1024.55
2019-02-27T04:24:28.527Z,1024.53
2019-02-27T04:25:31.333Z,1024.51
2019-02-27T04:26:28.550Z,1024.47
2019-02-27T04:27:28.563Z,1024.55
2019-02-27T04:28:29.930Z,1024.54
2019-02-27T04:29:28.588Z,1024.49
2019-02-27T04:30:28.602Z,1024.49
2019-02-27T04:31:30.483Z,1024.48
2019-02-27T04:32:28.628Z,1024.49
2019-02-27T04:33:28.641Z,1024.44
2019-02-27T04:34:32.975Z,1024.45
2019-02-27T04:35:28.668Z,1024.42
2019-02-27T04:37:28.692Z,1024.43
2019-02-27T04:38:28.705Z,1024.45
2019-02-27T04:39:28.717Z,1024.43
2019-02-27T04:40:28.731Z,1024.45
2019-02-27T04:41:28.746Z,1024.43
2019-02-27T04:42:28.757Z,1024.42
2019-02-27T04:43:31.927Z,1024.44
2019-02-27T04:44:28.782Z,1024.42
2019-02-27T04:45:28.795Z,1024.38
2019-02-27T04:46:28.807Z,1024.38
2019-02-27T04:47:29.685Z,1024.36
2019-02-27T04:48:29.900Z,1024.4
2019-02-27T04:49:28.846Z,1024.39
2019-02-27T04:50:28.877Z,1024.4
2019-02-27T04:51:28.886Z,1024.4
2019-02-27T04:53:31.748Z,1024.38
2019-02-27T04:54:28.910Z,1024.39
2019-02-27T04:55:28.922Z,1024.35
2019-02-27T04:56:28.936Z,1024.36
2019-02-27T04:57:30.771Z,1024.37
2019-02-27T04:58:28.960Z,1024.32
2019-02-27T04:59:28.974Z,1024.36
2019-02-27T05:00:28.986Z,1024.31
2019-02-27T05:01:28.999Z,1024.28
2019-02-27T05:02:29.012Z,1024.23
2019-02-27T05:03:29.024Z,1024.22
2019-02-27T05:04:29.055Z,1024.25
2019-02-27T05:05:29.052Z,1024.2
2019-02-27T05:06:29.063Z,1024.21
2019-02-27T05:07:29.076Z,1024.18
2019-02-27T05:09:31.300Z,1024.21
2019-02-27T05:10:29.114Z,1024.2
2019-02-27T05:11:29.130Z,1024.14
2019-02-27T05:12:29.139Z,1024.15
2019-02-27T05:13:29.152Z,1024.14
2019-02-27T05:14:29.165Z,1024.12
2019-02-27T05:15:29.178Z,1024.09
2019-02-27T05:16:29.190Z,1024.09
2019-02-27T05:17:29.203Z,1024.1
2019-02-27T05:18:29.967Z,1024.08
2019-02-27T05:19:29.227Z,1024.02
2019-02-27T05:20:29.243Z,1024.06
2019-02-27T05:21:29.254Z,1024.02
2019-02-27T05:22:29.267Z,1024
2019-02-27T05:23:30.855Z,1023.98
2019-02-27T05:25:29.305Z,1024
2019-02-27T05:26:29.317Z,1024.02
2019-02-27T05:27:29.589Z,1024.02
2019-02-27T05:28:29.344Z,1024.01
2019-02-27T05:29:29.357Z,1023.97
2019-02-27T05:30:29.369Z,1023.96
2019-02-27T05:31:29.380Z,1023.97
2019-02-27T05:32:29.396Z,1024.01
2019-02-27T05:33:29.406Z,1024.02
2019-02-27T05:34:29.419Z,1024.02
2019-02-27T05:35:29.431Z,1023.99
2019-02-27T05:36:31.601Z,1024.01
2019-02-27T05:37:29.456Z,1024
2019-02-27T05:38:29.470Z,1024.06
2019-02-27T05:40:29.495Z,1024.01
2019-02-27T05:41:32.882Z,1024.05
2019-02-27T05:42:29.520Z,1024.03
2019-02-27T05:43:29.533Z,1024.01
2019-02-27T05:44:29.546Z,1024.02
2019-02-27T05:45:31.088Z,1024
2019-02-27T05:46:29.580Z,1024.01
2019-02-27T05:47:29.584Z,1024.02
2019-02-27T05:48:29.596Z,1024.04
2019-02-27T05:49:29.608Z,1024.02
2019-02-27T05:50:33.928Z,1024.04
2019-02-27T05:51:29.635Z,1024.03
2019-02-27T05:52:29.646Z,1024.02
2019-02-27T05:53:29.660Z,1023.99
2019-02-27T05:54:29.900Z,1023.99
2019-02-27T05:55:29.685Z,1023.98
2019-02-27T05:56:29.697Z,1024
2019-02-27T05:57:31.361Z,1024.01
2019-02-27T05:58:29.723Z,1023.97
2019-02-27T05:59:29.947Z,1023.99
2019-02-27T06:00:29.748Z,1024.01
2019-02-27T06:01:29.763Z,1023.98
2019-02-27T06:02:29.774Z,1023.97
2019-02-27T06:03:29.788Z,1023.97
2019-02-27T06:04:29.799Z,1023.95
2019-02-27T06:05:29.812Z,1023.95
2019-02-27T06:06:29.825Z,1023.96
2019-02-27T06:07:29.837Z,1023.95
2019-02-27T06:08:29.849Z,1023.89
2019-02-27T06:09:29.863Z,1023.94
2019-02-27T06:10:29.881Z,1023.89
2019-02-27T06:12:29.903Z,1023.89
2019-02-27T06:13:29.916Z,1023.93
2019-02-27T06:14:29.927Z,1023.89
2019-02-27T06:15:29.938Z,1023.87
2019-02-27T06:16:29.953Z,1023.87
2019-02-27T06:17:29.964Z,1023.91
2019-02-27T06:18:29.980Z,1023.91
2019-02-27T06:19:30.540Z,1023.86
2019-02-27T06:20:30.003Z,1023.84
2019-02-27T06:21:30.014Z,1023.83
2019-02-27T06:22:30.364Z,1023.89
2019-02-27T06:23:30.043Z,1023.89
2019-02-27T06:24:30.053Z,1023.91
2019-02-27T06:25:30.066Z,1023.9
2019-02-27T06:26:32.364Z,1023.89
2019-02-27T06:28:30.104Z,1023.86
2019-02-27T06:29:30.116Z,1023.83
2019-02-27T06:30:30.591Z,1023.85
2019-02-27T06:31:30.142Z,1023.83
2019-02-27T06:32:30.154Z,1023.81
2019-02-27T06:33:30.167Z,1023.77
2019-02-27T06:34:30.180Z,1023.82
2019-02-27T06:35:33.207Z,1023.82
2019-02-27T06:36:30.205Z,1023.84
2019-02-27T06:37:30.219Z,1023.79
2019-02-27T06:38:30.232Z,1023.77
2019-02-27T06:39:34.082Z,1023.73
2019-02-27T06:40:30.275Z,1023.76
2019-02-27T06:41:30.270Z,1023.79
2019-02-27T06:42:30.394Z,1023.8
2019-02-27T06:44:30.309Z,1023.79
2019-02-27T06:45:30.325Z,1023.81
2019-02-27T06:46:30.338Z,1023.8
2019-02-27T06:47:32.960Z,1023.8
2019-02-27T06:48:30.362Z,1023.78
2019-02-27T06:49:30.376Z,1023.8
2019-02-27T06:50:30.416Z,1023.76
2019-02-27T06:51:30.403Z,1023.77
2019-02-27T06:52:30.417Z,1023.78
2019-02-27T06:53:30.432Z,1023.82
2019-02-27T06:54:30.445Z,1023.78
2019-02-27T06:55:30.460Z,1023.83
2019-02-27T06:56:30.475Z,1023.78
2019-02-27T06:57:30.489Z,1023.81
2019-02-27T06:58:30.503Z,1023.79
2019-02-27T07:00:35.742Z,1023.8
2019-02-27T07:01:30.552Z,1023.85
2019-02-27T07:02:30.564Z,1023.83
2019-02-27T07:03:32.863Z,1023.87
2019-02-27T07:04:30.596Z,1023.85
2019-02-27T07:05:30.611Z,1023.86
2019-02-27T07:06:30.628Z,1023.85
2019-02-27T07:07:31.230Z,1023.87
2019-02-27T07:08:30.660Z,1023.9
2019-02-27T07:09:30.675Z,1023.89
2019-02-27T07:10:30.692Z,1023.94
2019-02-27T07:11:30.709Z,1023.94
2019-02-27T07:12:30.727Z,1023.91
2019-02-27T07:13:30.744Z,1023.96
2019-02-27T07:15:30.779Z,1023.92
2019-02-27T07:16:30.795Z,1023.89
2019-02-27T07:17:31.706Z,1023.9
2019-02-27T07:18:30.834Z,1023.92
2019-02-27T07:19:30.848Z,1023.93
2019-02-27T07:20:30.866Z,1023.89
2019-02-27T07:21:32.771Z,1023.88
2019-02-27T07:22:30.902Z,1023.92
2019-02-27T07:23:30.920Z,1023.94
2019-02-27T07:24:33.566Z,1023.88
2019-02-27T07:25:30.957Z,1023.96
2019-02-27T07:26:30.976Z,1023.96
2019-02-27T07:27:31.248Z,1023.98
2019-02-27T07:28:31.012Z,1023.98
2019-02-27T07:29:31.031Z,1023.99
2019-02-27T07:30:31.053Z,1023.98
2019-02-27T07:31:31.069Z,1024.01
2019-02-27T07:32:31.550Z,1023.98
2019-02-27T07:33:31.107Z,1023.98
2019-02-27T07:34:31.126Z,1023.97
2019-02-27T07:35:31.146Z,1023.93
2019-02-27T07:36:31.165Z,1023.89
2019-02-27T07:37:31.184Z,1023.85
2019-02-27T07:38:31.204Z,1023.79
2019-02-27T07:39:32.744Z,1023.79
2019-02-27T07:40:31.243Z,1023.79
2019-02-27T07:41:31.264Z,1023.76
2019-02-27T07:42:32.086Z,1023.73
2019-02-27T07:43:31.301Z,1023.72
2019-02-27T07:44:32.212Z,1023.7
2019-02-27T07:45:31.341Z,1023.68
2019-02-27T07:47:31.381Z,1023.7
2019-02-27T07:48:31.401Z,1023.66
2019-02-27T07:49:31.584Z,1023.61
2019-02-27T07:50:32.552Z,1023.59
2019-02-27T07:51:31.461Z,1023.57
2019-02-27T07:52:32.435Z,1023.61
2019-02-27T07:53:31.507Z,1023.61
2019-02-27T07:54:31.523Z,1023.68
2019-02-27T07:55:31.540Z,1023.61
2019-02-27T07:56:31.559Z,1023.64
2019-02-27T07:57:31.580Z,1023.64
2019-02-27T07:58:33.616Z,1023.65
2019-02-27T07:59:31.621Z,1023.59
2019-02-27T08:00:31.640Z,1023.59
2019-02-27T08:01:31.660Z,1023.61
2019-02-27T08:03:31.701Z,1023.57
2019-02-27T08:04:31.720Z,1023.56
2019-02-27T08:05:31.741Z,1023.59
2019-02-27T08:06:31.761Z,1023.55
2019-02-27T08:07:31.781Z,1023.56
2019-02-27T08:08:31.801Z,1023.53
2019-02-27T08:09:31.821Z,1023.54
2019-02-27T08:10:31.842Z,1023.5
2019-02-27T08:11:31.861Z,1023.48
2019-02-27T08:12:31.932Z,1023.45
2019-02-27T08:13:31.903Z,1023.51
2019-02-27T08:14:31.923Z,1023.48
2019-02-27T08:15:31.943Z,1023.52
2019-02-27T08:16:31.963Z,1023.45
2019-02-27T08:17:31.984Z,1023.47
2019-02-27T08:19:32.024Z,1023.46
2019-02-27T08:20:32.047Z,1023.4
2019-02-27T08:21:32.065Z,1023.36
2019-02-27T08:22:32.085Z,1023.34
2019-02-27T08:23:32.848Z,1023.33
2019-02-27T08:24:33.582Z,1023.34
2019-02-27T08:25:32.147Z,1023.38
2019-02-27T08:26:32.166Z,1023.39
2019-02-27T08:27:32.187Z,1023.38
2019-02-27T08:28:32.208Z,1023.35
2019-02-27T08:29:32.228Z,1023.36
2019-02-27T08:30:32.248Z,1023.37
2019-02-27T08:31:32.269Z,1023.37
2019-02-27T08:32:34.469Z,1023.4
2019-02-27T08:33:32.319Z,1023.36
2019-02-27T08:35:32.352Z,1023.3
2019-02-27T08:36:32.372Z,1023.27
2019-02-27T08:37:32.391Z,1023.34
2019-02-27T08:38:32.412Z,1023.31
2019-02-27T08:39:32.433Z,1023.29
2019-02-27T08:40:32.454Z,1023.22
2019-02-27T08:41:32.474Z,1023.24
2019-02-27T08:42:36.775Z,1023.26
2019-02-27T08:43:32.517Z,1023.27
2019-02-27T08:44:32.536Z,1023.25
2019-02-27T08:45:32.558Z,1023.22
2019-02-27T08:46:33.943Z,1023.25
2019-02-27T08:47:33.639Z,1023.22
2019-02-27T08:48:32.621Z,1023.23
2019-02-27T08:50:32.677Z,1023.23
2019-02-27T08:51:32.683Z,1023.26
2019-02-27T08:52:32.708Z,1023.23
2019-02-27T08:53:34.470Z,1023.22
2019-02-27T08:54:33.173Z,1023.23
2019-02-27T08:55:32.767Z,1023.16
2019-02-27T08:56:32.788Z,1023.14
2019-02-27T08:57:32.810Z,1023.14
2019-02-27T08:58:33.071Z,1023.15
2019-02-27T08:59:32.851Z,1023.14
2019-02-27T09:00:32.872Z,1023.15
2019-02-27T09:01:32.894Z,1023.13
2019-02-27T09:02:32.915Z,1023.09
2019-02-27T09:03:36.139Z,1023.09
2019-02-27T09:04:32.958Z,1023.08
2019-02-27T09:05:32.980Z,1023.09
2019-02-27T09:06:33.003Z,1023.03
2019-02-27T09:07:33.867Z,1023.01
2019-02-27T09:08:33.044Z,1022.98
2019-02-27T09:09:33.064Z,1023
2019-02-27T09:10:33.085Z,1022.97
2019-02-27T09:11:33.108Z,1022.94
2019-02-27T09:12:33.130Z,1022.92
2019-02-27T09:13:33.155Z,1022.83
2019-02-27T09:14:33.183Z,1022.84
2019-02-27T09:15:33.195Z,1022.82
2019-02-27T09:16:33.217Z,1022.85
2019-02-27T09:17:33.235Z,1022.83
2019-02-27T09:18:35.888Z,1022.83
2019-02-27T09:19:33.279Z,1022.76
2019-02-27T09:20:33.300Z,1022.73
2019-02-27T09:22:33.782Z,1022.75
2019-02-27T09:23:33.630Z,1022.7
2019-02-27T09:24:33.386Z,1022.7
2019-02-27T09:25:33.415Z,1022.65
2019-02-27T09:26:35.807Z,1022.67
2019-02-27T09:27:35.291Z,1022.64
2019-02-27T09:28:33.474Z,1022.6
2019-02-27T09:29:33.495Z,1022.64
2019-02-27T09:30:33.520Z,1022.59
2019-02-27T09:31:34.649Z,1022.59
2019-02-27T09:32:33.561Z,1022.6
2019-02-27T09:33:38.636Z,1022.54
2019-02-27T09:34:33.641Z,1022.57
2019-02-27T09:35:38.397Z,1022.55
2019-02-27T09:36:33.652Z,1022.54
2019-02-27T09:38:33.702Z,1022.56
2019-02-27T09:39:35.134Z,1022.52
2019-02-27T09:40:38.205Z,1022.51
2019-02-27T09:41:33.759Z,1022.54
2019-02-27T09:42:33.780Z,1022.46
2019-02-27T09:43:33.803Z,1022.46
2019-02-27T09:44:36.072Z,1022.46
2019-02-27T09:45:34.808Z,1022.43
2019-02-27T09:46:33.869Z,1022.42
2019-02-27T09:47:33.891Z,1022.42
2019-02-27T09:48:34.087Z,1022.4
2019-02-27T09:49:33.936Z,1022.35
2019-02-27T09:50:33.957Z,1022.34
2019-02-27T09:51:33.980Z,1022.34
2019-02-27T09:52:34.002Z,1022.37
2019-02-27T09:54:34.087Z,1022.34
2019-02-27T09:55:34.070Z,1022.32
2019-02-27T09:56:34.091Z,1022.3
2019-02-27T09:57:35.270Z,1022.29
2019-02-27T09:58:34.136Z,1022.28
2019-02-27T09:59:34.157Z,1022.3
2019-02-27T10:00:34.179Z,1022.28
2019-02-27T10:01:35.126Z,1022.28
2019-02-27T10:02:34.224Z,1022.24
2019-02-27T10:03:34.247Z,1022.24
2019-02-27T10:04:34.267Z,1022.23
2019-02-27T10:05:36.634Z,1022.22
2019-02-27T10:06:34.315Z,1022.24
2019-02-27T10:07:34.335Z,1022.19
2019-02-27T10:08:34.357Z,1022.18
2019-02-27T10:10:34.402Z,1022.16
2019-02-27T10:11:34.424Z,1022.15
2019-02-27T10:12:34.446Z,1022.09
2019-02-27T10:13:35.432Z,1022.13
2019-02-27T10:14:34.491Z,1022.11
2019-02-27T10:15:34.614Z,1022.12
2019-02-27T10:16:35.286Z,1022.11
2019-02-27T10:17:34.558Z,1022.11
2019-02-27T10:18:34.581Z,1022.1
2019-02-27T10:19:34.602Z,1022.1
2019-02-27T10:20:37.201Z,1022.08
2019-02-27T10:21:34.648Z,1022.09
2019-02-27T10:22:34.671Z,1022.07
2019-02-27T10:23:34.692Z,1022.08
2019-02-27T10:25:34.739Z,1022.08
2019-02-27T10:26:34.761Z,1022.1
2019-02-27T10:27:34.782Z,1022.09
2019-02-27T10:28:38.672Z,1022.05
2019-02-27T10:29:34.827Z,1022.06
2019-02-27T10:30:34.849Z,1022.03
2019-02-27T10:31:34.871Z,1022.03
2019-02-27T10:32:36.580Z,1022.02
2019-02-27T10:33:34.916Z,1022.01
2019-02-27T10:34:36.217Z,1022
2019-02-27T10:35:35.022Z,1021.94
2019-02-27T10:36:37.966Z,1021.95
2019-02-27T10:37:35.074Z,1021.9
2019-02-27T10:38:40.177Z,1021.87
2019-02-27T10:39:37.032Z,1021.82
2019-02-27T10:40:35.071Z,1021.86
2019-02-27T10:41:35.094Z,1021.81
2019-02-27T10:42:35.115Z,1021.82
2019-02-27T10:43:35.136Z,1021.73
2019-02-27T10:44:35.168Z,1021.73
2019-02-27T10:45:35.180Z,1021.69
2019-02-27T10:46:35.201Z,1021.66
2019-02-27T10:47:36.240Z,1021.68
2019-02-27T10:48:36.756Z,1021.66
2019-02-27T10:49:35.265Z,1021.65
2019-02-27T10:50:36.093Z,1021.62
2019-02-27T10:51:35.309Z,1021.58
2019-02-27T10:52:35.330Z,1021.55
2019-02-27T10:53:35.352Z,1021.55
2019-02-27T10:54:36.988Z,1021.56
2019-02-27T10:55:35.394Z,1021.51
2019-02-27T10:57:38.323Z,1021.47
2019-02-27T10:58:35.461Z,1021.5
2019-02-27T10:59:35.482Z,1021.48
2019-02-27T11:00:35.501Z,1021.48
2019-02-27T11:01:36.332Z,1021.45
2019-02-27T11:02:35.544Z,1021.46
2019-02-27T11:03:35.566Z,1021.41
2019-02-27T11:04:36.263Z,1021.37
2019-02-27T11:05:35.608Z,1021.36
2019-02-27T11:06:37.680Z,1021.34
2019-02-27T11:07:35.650Z,1021.31
2019-02-27T11:08:35.671Z,1021.35
2019-02-27T11:09:38.243Z,1021.35
2019-02-27T11:10:35.719Z,1021.35
2019-02-27T11:11:35.734Z,1021.29
2019-02-27T11:13:35.777Z,1021.28
2019-02-27T11:14:35.798Z,1021.28
2019-02-27T11:15:35.819Z,1021.36
2019-02-27T11:16:35.841Z,1021.3
2019-02-27T11:17:35.862Z,1021.29
2019-02-27T11:18:35.882Z,1021.26
2019-02-27T11:19:35.903Z,1021.23
2019-02-27T11:20:35.925Z,1021.23
2019-02-27T11:21:35.950Z,1021.22
2019-02-27T11:22:35.966Z,1021.18
2019-02-27T11:23:35.987Z,1021.16
2019-02-27T11:24:36.008Z,1021.15
2019-02-27T11:25:36.028Z,1021.19
2019-02-27T11:26:36.049Z,1021.16
2019-02-27T11:27:36.278Z,1021.21
2019-02-27T11:29:36.112Z,1021.14
2019-02-27T11:30:36.982Z,1021.12
2019-02-27T11:31:36.155Z,1021.11
2019-02-27T11:32:36.174Z,1021.09
2019-02-27T11:33:36.195Z,1021.05
2019-02-27T11:34:36.246Z,1020.99
2019-02-27T11:35:36.245Z,1021.04
2019-02-27T11:36:38.836Z,1021.07
2019-02-27T11:37:36.279Z,1021.03
2019-02-27T11:38:36.300Z,1021.02
2019-02-27T11:39:36.320Z,1021
2019-02-27T11:40:36.341Z,1020.99
2019-02-27T11:41:36.363Z,1020.94
2019-02-27T11:42:36.384Z,1020.96
2019-02-27T11:43:37.868Z,1020.95
2019-02-27T11:45:36.447Z,1020.94
2019-02-27T11:46:38.191Z,1020.85
2019-02-27T11:47:36.488Z,1020.85
2019-02-27T11:48:36.509Z,1020.78
2019-02-27T11:49:38.718Z,1020.76
2019-02-27T11:50:36.551Z,1020.7
2019-02-27T11:51:36.571Z,1020.67
2019-02-27T11:52:36.592Z,1020.64
2019-02-27T11:53:36.613Z,1020.69
2019-02-27T11:54:36.635Z,1020.64
2019-02-27T11:55:36.655Z,1020.59
2019-02-27T11:56:36.676Z,1020.58
2019-02-27T11:57:36.698Z,1020.56
2019-02-27T11:58:38.348Z,1020.51
2019-02-27T12:00:36.767Z,1020.49
2019-02-27T12:01:36.781Z,1020.43
2019-02-27T12:02:37.879Z,1020.43
2019-02-27T12:03:36.823Z,1020.46
2019-02-27T12:04:36.846Z,1020.42
2019-02-27T12:05:36.866Z,1020.42
2019-02-27T12:06:41.197Z,1020.38
2019-02-27T12:07:36.908Z,1020.42
2019-02-27T12:08:36.929Z,1020.38
2019-02-27T12:09:36.949Z,1020.33
2019-02-27T12:10:36.970Z,1020.34
2019-02-27T12:11:36.991Z,1020.35
2019-02-27T12:12:37.012Z,1020.32
2019-02-27T12:13:37.033Z,1020.32
2019-02-27T12:14:37.055Z,1020.33
2019-02-27T12:15:37.100Z,1020.34
2019-02-27T12:16:37.098Z,1020.29
2019-02-27T12:17:37.117Z,1020.3
2019-02-27T12:18:37.140Z,1020.26
2019-02-27T12:19:37.159Z,1020.23
2019-02-27T12:20:37.179Z,1020.22
2019-02-27T12:21:37.201Z,1020.18
2019-02-27T12:22:37.223Z,1020.14
2019-02-27T12:23:37.243Z,1020.15
2019-02-27T12:24:37.264Z,1020.1
2019-02-27T12:25:37.285Z,1020.06
2019-02-27T12:26:37.489Z,1020.08
2019-02-27T12:27:48.228Z,1020.02
2019-02-27T12:28:37.350Z,1019.97
2019-02-27T12:29:37.371Z,1019.97
2019-02-27T12:30:37.998Z,1019.9
2019-02-27T12:32:37.433Z,1019.94
2019-02-27T12:33:37.456Z,1019.92
2019-02-27T12:34:37.802Z,1019.93
2019-02-27T12:35:37.497Z,1019.87
2019-02-27T12:36:37.517Z,1019.85
2019-02-27T12:37:37.539Z,1019.85
2019-02-27T12:38:39.258Z,1019.87
2019-02-27T12:39:37.580Z,1019.87
2019-02-27T12:40:37.601Z,1019.9
2019-02-27T12:41:37.621Z,1019.89
2019-02-27T12:42:42.250Z,1019.85
2019-02-27T12:43:37.665Z,1019.88
2019-02-27T12:44:37.686Z,1019.82
2019-02-27T12:45:37.707Z,1019.78
2019-02-27T12:46:37.728Z,1019.8
2019-02-27T12:48:37.771Z,1019.67
2019-02-27T12:49:37.792Z,1019.67